sensor_id;sensor_type;location;lat;lon;timestamp;P1;durP1;ratioP1;P2;durP2;ratioP2
52918;SDS011;38793;52.690;6.812;2023-04-08T00:00:15;10.30;;;8.60;;
52918;SDS011;38793;52.690;6.812;2023-04-08T00:02:41;15.15;;;7.68;;
52918;SDS011;38793;52.690;6.812;2023-04-08T00:05:07;10.02;;;7.57;;
52918;SDS011;38793;52.690;6.812;2023-04-08T00:07:33;9.43;;;8.23;;
52918;SDS011;38793;52.690;6.812;2023-04-08T00:09:59;10.35;;;8.00;;
52918;SDS011;38793;52.690;6.812;2023-04-08T00:12:25;10.38;;;7.65;;
52918;SDS011;38793;52.690;6.812;2023-04-08T00:14:50;10.87;;;8.37;;
52918;SDS011;38793;52.690;6.812;2023-04-08T00:17:16;11.18;;;8.02;;
52918;SDS011;38793;52.690;6.812;2023-04-08T00:19:42;7.30;;;6.60;;
52918;SDS011;38793;52.690;6.812;2023-04-08T00:24:34;10.00;;;7.25;;
52918;SDS011;38793;52.690;6.812;2023-04-08T00:27:00;8.27;;;7.47;;
52918;SDS011;38793;52.690;6.812;2023-04-08T00:31:52;7.40;;;6.68;;
52918;SDS011;38793;52.690;6.812;2023-04-08T00:34:18;9.20;;;6.80;;
52918;SDS011;38793;52.690;6.812;2023-04-08T00:36:44;8.23;;;6.78;;
52918;SDS011;38793;52.690;6.812;2023-04-08T00:39:11;9.50;;;7.28;;
52918;SDS011;38793;52.690;6.812;2023-04-08T00:41:37;9.93;;;7.78;;
52918;SDS011;38793;52.690;6.812;2023-04-08T00:44:03;8.57;;;6.50;;
52918;SDS011;38793;52.690;6.812;2023-04-08T00:46:29;9.97;;;7.77;;
52918;SDS011;38793;52.690;6.812;2023-04-08T00:48:57;12.48;;;7.10;;
52918;SDS011;38793;52.690;6.812;2023-04-08T00:51:23;9.98;;;7.50;;
52918;SDS011;38793;52.690;6.812;2023-04-08T00:53:49;14.63;;;8.63;;
52918;SDS011;38793;52.690;6.812;2023-04-08T00:56:14;12.43;;;7.97;;
52918;SDS011;38793;52.690;6.812;2023-04-08T00:58:40;16.13;;;8.17;;
52918;SDS011;38793;52.690;6.812;2023-04-08T01:01:06;8.67;;;7.23;;
52918;SDS011;38793;52.690;6.812;2023-04-08T01:08:42;10.98;;;8.05;;
52918;SDS011;38793;52.690;6.812;2023-04-08T01:11:10;15.73;;;8.43;;
52918;SDS011;38793;52.690;6.812;2023-04-08T01:13:39;8.35;;;6.95;;
52918;SDS011;38793;52.690;6.812;2023-04-08T01:16:11;11.77;;;7.63;;
52918;SDS011;38793;52.690;6.812;2023-04-08T01:18:40;8.50;;;7.40;;
52918;SDS011;38793;52.690;6.812;2023-04-08T01:21:07;7.88;;;7.07;;
52918;SDS011;38793;52.690;6.812;2023-04-08T01:26:22;8.35;;;7.30;;
52918;SDS011;38793;52.690;6.812;2023-04-08T01:28:50;10.60;;;8.95;;
52918;SDS011;38793;52.690;6.812;2023-04-08T01:31:21;12.98;;;7.47;;
52918;SDS011;38793;52.690;6.812;2023-04-08T01:33:47;10.52;;;8.38;;
52918;SDS011;38793;52.690;6.812;2023-04-08T01:36:15;8.40;;;7.50;;
52918;SDS011;38793;52.690;6.812;2023-04-08T01:41:08;12.38;;;8.55;;
52918;SDS011;38793;52.690;6.812;2023-04-08T01:43:35;11.52;;;8.85;;
52918;SDS011;38793;52.690;6.812;2023-04-08T01:46:03;10.48;;;8.40;;
52918;SDS011;38793;52.690;6.812;2023-04-08T01:48:30;10.82;;;8.98;;
52918;SDS011;38793;52.690;6.812;2023-04-08T01:50:56;11.82;;;8.77;;
52918;SDS011;38793;52.690;6.812;2023-04-08T01:53:22;10.60;;;8.65;;
52918;SDS011;38793;52.690;6.812;2023-04-08T01:55:48;9.87;;;8.87;;
52918;SDS011;38793;52.690;6.812;2023-04-08T01:58:20;12.32;;;10.23;;
52918;SDS011;38793;52.690;6.812;2023-04-08T02:00:46;12.80;;;10.45;;
52918;SDS011;38793;52.690;6.812;2023-04-08T02:03:13;13.82;;;10.43;;
52918;SDS011;38793;52.690;6.812;2023-04-08T02:05:42;14.27;;;10.93;;
52918;SDS011;38793;52.690;6.812;2023-04-08T02:08:08;12.87;;;10.63;;
52918;SDS011;38793;52.690;6.812;2023-04-08T02:10:33;15.67;;;11.10;;
52918;SDS011;38793;52.690;6.812;2023-04-08T02:12:59;12.73;;;10.03;;
52918;SDS011;38793;52.690;6.812;2023-04-08T02:15:26;13.80;;;10.23;;
52918;SDS011;38793;52.690;6.812;2023-04-08T02:17:58;15.82;;;11.43;;
52918;SDS011;38793;52.690;6.812;2023-04-08T02:23:15;12.90;;;11.05;;
52918;SDS011;38793;52.690;6.812;2023-04-08T02:25:46;17.38;;;11.65;;
52918;SDS011;38793;52.690;6.812;2023-04-08T02:28:14;14.63;;;11.05;;
52918;SDS011;38793;52.690;6.812;2023-04-08T02:30:42;14.02;;;10.98;;
52918;SDS011;38793;52.690;6.812;2023-04-08T02:33:08;15.07;;;11.32;;
52918;SDS011;38793;52.690;6.812;2023-04-08T02:35:35;13.93;;;11.88;;
52918;SDS011;38793;52.690;6.812;2023-04-08T02:38:02;15.93;;;11.63;;
52918;SDS011;38793;52.690;6.812;2023-04-08T02:40:29;13.60;;;11.73;;
52918;SDS011;38793;52.690;6.812;2023-04-08T02:42:56;12.90;;;11.48;;
52918;SDS011;38793;52.690;6.812;2023-04-08T02:47:52;11.82;;;9.95;;
52918;SDS011;38793;52.690;6.812;2023-04-08T02:50:17;19.93;;;12.07;;
52918;SDS011;38793;52.690;6.812;2023-04-08T02:52:43;15.90;;;11.63;;
52918;SDS011;38793;52.690;6.812;2023-04-08T02:55:09;14.43;;;12.73;;
52918;SDS011;38793;52.690;6.812;2023-04-08T02:57:35;12.38;;;10.65;;
52918;SDS011;38793;52.690;6.812;2023-04-08T03:00:02;14.20;;;11.75;;
52918;SDS011;38793;52.690;6.812;2023-04-08T03:02:28;16.10;;;11.93;;
52918;SDS011;38793;52.690;6.812;2023-04-08T03:04:54;16.23;;;12.32;;
52918;SDS011;38793;52.690;6.812;2023-04-08T03:07:20;17.67;;;11.50;;
52918;SDS011;38793;52.690;6.812;2023-04-08T03:09:45;15.17;;;12.23;;
52918;SDS011;38793;52.690;6.812;2023-04-08T03:12:11;16.87;;;12.13;;
52918;SDS011;38793;52.690;6.812;2023-04-08T03:14:36;16.57;;;12.10;;
52918;SDS011;38793;52.690;6.812;2023-04-08T03:17:02;13.07;;;11.33;;
52918;SDS011;38793;52.690;6.812;2023-04-08T03:19:28;17.80;;;12.37;;
52918;SDS011;38793;52.690;6.812;2023-04-08T03:21:53;18.13;;;12.43;;
52918;SDS011;38793;52.690;6.812;2023-04-08T03:24:19;16.37;;;12.93;;
52918;SDS011;38793;52.690;6.812;2023-04-08T03:26:44;14.60;;;11.03;;
52918;SDS011;38793;52.690;6.812;2023-04-08T03:29:10;16.10;;;13.03;;
52918;SDS011;38793;52.690;6.812;2023-04-08T03:31:35;14.57;;;12.70;;
52918;SDS011;38793;52.690;6.812;2023-04-08T03:34:01;17.30;;;13.50;;
52918;SDS011;38793;52.690;6.812;2023-04-08T03:36:27;18.40;;;13.33;;
52918;SDS011;38793;52.690;6.812;2023-04-08T03:38:52;14.80;;;12.77;;
52918;SDS011;38793;52.690;6.812;2023-04-08T03:41:18;18.80;;;15.00;;
52918;SDS011;38793;52.690;6.812;2023-04-08T03:43:43;17.83;;;14.40;;
52918;SDS011;38793;52.690;6.812;2023-04-08T03:46:09;22.38;;;14.75;;
52918;SDS011;38793;52.690;6.812;2023-04-08T03:48:35;22.17;;;14.97;;
52918;SDS011;38793;52.690;6.812;2023-04-08T03:51:04;17.93;;;14.77;;
52918;SDS011;38793;52.690;6.812;2023-04-08T03:53:29;17.10;;;14.73;;
52918;SDS011;38793;52.690;6.812;2023-04-08T03:55:55;20.33;;;15.23;;
52918;SDS011;38793;52.690;6.812;2023-04-08T03:58:21;18.77;;;15.13;;
52918;SDS011;38793;52.690;6.812;2023-04-08T04:00:47;19.50;;;15.68;;
52918;SDS011;38793;52.690;6.812;2023-04-08T04:03:13;20.67;;;15.63;;
52918;SDS011;38793;52.690;6.812;2023-04-08T04:05:38;20.57;;;15.53;;
52918;SDS011;38793;52.690;6.812;2023-04-08T04:08:04;24.88;;;16.92;;
52918;SDS011;38793;52.690;6.812;2023-04-08T04:10:30;17.42;;;14.57;;
52918;SDS011;38793;52.690;6.812;2023-04-08T04:12:55;20.73;;;15.97;;
52918;SDS011;38793;52.690;6.812;2023-04-08T04:15:21;19.67;;;15.13;;
52918;SDS011;38793;52.690;6.812;2023-04-08T04:17:47;22.13;;;17.20;;
52918;SDS011;38793;52.690;6.812;2023-04-08T04:20:14;24.27;;;16.98;;
52918;SDS011;38793;52.690;6.812;2023-04-08T04:22:40;23.50;;;17.00;;
52918;SDS011;38793;52.690;6.812;2023-04-08T04:25:06;21.13;;;16.60;;
52918;SDS011;38793;52.690;6.812;2023-04-08T04:27:32;20.92;;;16.45;;
52918;SDS011;38793;52.690;6.812;2023-04-08T04:29:59;22.98;;;17.13;;
52918;SDS011;38793;52.690;6.812;2023-04-08T04:32:25;22.25;;;17.23;;
52918;SDS011;38793;52.690;6.812;2023-04-08T04:34:50;24.47;;;18.13;;
52918;SDS011;38793;52.690;6.812;2023-04-08T04:37:16;23.13;;;17.60;;
52918;SDS011;38793;52.690;6.812;2023-04-08T04:39:42;24.10;;;19.55;;
52918;SDS011;38793;52.690;6.812;2023-04-08T04:42:08;22.42;;;17.40;;
52918;SDS011;38793;52.690;6.812;2023-04-08T04:44:34;25.20;;;18.30;;
52918;SDS011;38793;52.690;6.812;2023-04-08T04:47:00;23.88;;;18.08;;
52918;SDS011;38793;52.690;6.812;2023-04-08T04:51:51;27.15;;;18.88;;
52918;SDS011;38793;52.690;6.812;2023-04-08T04:54:17;25.33;;;18.13;;
52918;SDS011;38793;52.690;6.812;2023-04-08T04:56:42;30.00;;;17.77;;
52918;SDS011;38793;52.690;6.812;2023-04-08T04:59:08;21.07;;;17.03;;
52918;SDS011;38793;52.690;6.812;2023-04-08T05:01:34;25.93;;;18.43;;
52918;SDS011;38793;52.690;6.812;2023-04-08T05:03:59;25.25;;;19.48;;
52918;SDS011;38793;52.690;6.812;2023-04-08T05:06:25;27.53;;;20.33;;
52918;SDS011;38793;52.690;6.812;2023-04-08T05:08:51;27.60;;;21.00;;
52918;SDS011;38793;52.690;6.812;2023-04-08T05:11:17;26.98;;;20.08;;
52918;SDS011;38793;52.690;6.812;2023-04-08T05:13:43;26.30;;;20.80;;
52918;SDS011;38793;52.690;6.812;2023-04-08T05:16:09;26.42;;;20.65;;
52918;SDS011;38793;52.690;6.812;2023-04-08T05:18:35;27.75;;;21.92;;
52918;SDS011;38793;52.690;6.812;2023-04-08T05:21:01;30.93;;;22.53;;
52918;SDS011;38793;52.690;6.812;2023-04-08T05:23:26;29.17;;;23.23;;
52918;SDS011;38793;52.690;6.812;2023-04-08T05:25:52;30.53;;;20.97;;
52918;SDS011;38793;52.690;6.812;2023-04-08T05:28:18;33.53;;;24.00;;
52918;SDS011;38793;52.690;6.812;2023-04-08T05:30:50;33.10;;;23.63;;
52918;SDS011;38793;52.690;6.812;2023-04-08T05:33:16;29.38;;;22.60;;
52918;SDS011;38793;52.690;6.812;2023-04-08T05:35:42;27.05;;;20.90;;
52918;SDS011;38793;52.690;6.812;2023-04-08T05:38:08;32.72;;;21.48;;
52918;SDS011;38793;52.690;6.812;2023-04-08T05:40:34;32.17;;;21.37;;
52918;SDS011;38793;52.690;6.812;2023-04-08T05:43:00;27.77;;;22.08;;
52918;SDS011;38793;52.690;6.812;2023-04-08T05:45:26;30.70;;;21.50;;
52918;SDS011;38793;52.690;6.812;2023-04-08T05:47:52;29.60;;;22.65;;
52918;SDS011;38793;52.690;6.812;2023-04-08T05:50:18;28.50;;;22.80;;
52918;SDS011;38793;52.690;6.812;2023-04-08T05:52:44;26.88;;;20.75;;
52918;SDS011;38793;52.690;6.812;2023-04-08T05:55:10;29.02;;;21.92;;
52918;SDS011;38793;52.690;6.812;2023-04-08T05:57:36;29.65;;;21.40;;
52918;SDS011;38793;52.690;6.812;2023-04-08T06:00:03;32.97;;;23.27;;
52918;SDS011;38793;52.690;6.812;2023-04-08T06:02:31;31.77;;;23.83;;
52918;SDS011;38793;52.690;6.812;2023-04-08T06:04:56;31.17;;;23.77;;
52918;SDS011;38793;52.690;6.812;2023-04-08T06:07:22;33.30;;;24.00;;
52918;SDS011;38793;52.690;6.812;2023-04-08T06:09:48;32.90;;;24.60;;
52918;SDS011;38793;52.690;6.812;2023-04-08T06:12:13;37.07;;;25.87;;
52918;SDS011;38793;52.690;6.812;2023-04-08T06:14:39;33.75;;;23.63;;
52918;SDS011;38793;52.690;6.812;2023-04-08T06:17:05;34.00;;;24.70;;
52918;SDS011;38793;52.690;6.812;2023-04-08T06:19:30;36.13;;;25.53;;
52918;SDS011;38793;52.690;6.812;2023-04-08T06:21:56;36.53;;;24.70;;
52918;SDS011;38793;52.690;6.812;2023-04-08T06:24:26;38.78;;;26.33;;
52918;SDS011;38793;52.690;6.812;2023-04-08T06:26:53;31.33;;;24.25;;
52918;SDS011;38793;52.690;6.812;2023-04-08T06:29:19;34.65;;;24.65;;
52918;SDS011;38793;52.690;6.812;2023-04-08T06:34:11;34.65;;;23.60;;
52918;SDS011;38793;52.690;6.812;2023-04-08T06:36:37;35.13;;;25.03;;
52918;SDS011;38793;52.690;6.812;2023-04-08T06:39:02;31.95;;;25.17;;
52918;SDS011;38793;52.690;6.812;2023-04-08T06:41:28;37.17;;;26.87;;
52918;SDS011;38793;52.690;6.812;2023-04-08T06:43:54;36.10;;;26.25;;
52918;SDS011;38793;52.690;6.812;2023-04-08T06:46:20;35.85;;;25.00;;
52918;SDS011;38793;52.690;6.812;2023-04-08T06:48:46;33.97;;;25.53;;
52918;SDS011;38793;52.690;6.812;2023-04-08T06:51:11;37.53;;;27.63;;
52918;SDS011;38793;52.690;6.812;2023-04-08T06:53:37;37.33;;;26.23;;
52918;SDS011;38793;52.690;6.812;2023-04-08T06:56:03;31.00;;;23.20;;
52918;SDS011;38793;52.690;6.812;2023-04-08T06:58:28;36.78;;;25.65;;
52918;SDS011;38793;52.690;6.812;2023-04-08T07:00:54;38.77;;;25.70;;
52918;SDS011;38793;52.690;6.812;2023-04-08T07:03:20;30.73;;;23.13;;
52918;SDS011;38793;52.690;6.812;2023-04-08T07:05:46;40.70;;;27.77;;
52918;SDS011;38793;52.690;6.812;2023-04-08T07:08:12;32.40;;;24.23;;
52918;SDS011;38793;52.690;6.812;2023-04-08T07:10:37;39.60;;;25.43;;
52918;SDS011;38793;52.690;6.812;2023-04-08T07:13:03;43.17;;;29.53;;
52918;SDS011;38793;52.690;6.812;2023-04-08T07:15:29;41.22;;;26.98;;
52918;SDS011;38793;52.690;6.812;2023-04-08T07:17:55;36.92;;;26.48;;
52918;SDS011;38793;52.690;6.812;2023-04-08T07:20:21;40.33;;;29.05;;
52918;SDS011;38793;52.690;6.812;2023-04-08T07:25:13;41.85;;;29.02;;
52918;SDS011;38793;52.690;6.812;2023-04-08T07:27:38;43.78;;;29.17;;
52918;SDS011;38793;52.690;6.812;2023-04-08T07:30:04;40.83;;;28.13;;
52918;SDS011;38793;52.690;6.812;2023-04-08T07:32:31;46.90;;;29.75;;
52918;SDS011;38793;52.690;6.812;2023-04-08T07:34:57;40.20;;;29.23;;
52918;SDS011;38793;52.690;6.812;2023-04-08T07:37:24;42.55;;;28.27;;
52918;SDS011;38793;52.690;6.812;2023-04-08T07:39:50;42.88;;;27.60;;
52918;SDS011;38793;52.690;6.812;2023-04-08T07:42:16;38.40;;;28.37;;
52918;SDS011;38793;52.690;6.812;2023-04-08T07:47:08;36.33;;;24.88;;
52918;SDS011;38793;52.690;6.812;2023-04-08T07:49:33;34.60;;;24.87;;
52918;SDS011;38793;52.690;6.812;2023-04-08T07:51:59;34.10;;;23.53;;
52918;SDS011;38793;52.690;6.812;2023-04-08T07:54:25;32.03;;;23.58;;
52918;SDS011;38793;52.690;6.812;2023-04-08T07:56:50;34.50;;;25.67;;
52918;SDS011;38793;52.690;6.812;2023-04-08T07:59:16;32.43;;;22.67;;
52918;SDS011;38793;52.690;6.812;2023-04-08T08:01:41;31.30;;;22.73;;
52918;SDS011;38793;52.690;6.812;2023-04-08T08:04:07;28.33;;;20.70;;
52918;SDS011;38793;52.690;6.812;2023-04-08T08:06:33;29.20;;;20.70;;
52918;SDS011;38793;52.690;6.812;2023-04-08T08:08:58;29.73;;;21.40;;
52918;SDS011;38793;52.690;6.812;2023-04-08T08:11:25;29.38;;;21.63;;
52918;SDS011;38793;52.690;6.812;2023-04-08T08:13:52;29.98;;;20.63;;
52918;SDS011;38793;52.690;6.812;2023-04-08T08:16:17;30.27;;;21.73;;
52918;SDS011;38793;52.690;6.812;2023-04-08T08:18:43;28.98;;;21.20;;
52918;SDS011;38793;52.690;6.812;2023-04-08T08:21:09;26.88;;;18.75;;
52918;SDS011;38793;52.690;6.812;2023-04-08T08:23:35;26.10;;;19.77;;
52918;SDS011;38793;52.690;6.812;2023-04-08T08:26:05;27.13;;;19.63;;
52918;SDS011;38793;52.690;6.812;2023-04-08T08:28:36;24.08;;;19.02;;
52918;SDS011;38793;52.690;6.812;2023-04-08T08:31:03;23.73;;;17.25;;
52918;SDS011;38793;52.690;6.812;2023-04-08T08:33:30;23.88;;;17.40;;
52918;SDS011;38793;52.690;6.812;2023-04-08T08:35:56;23.30;;;16.88;;
52918;SDS011;38793;52.690;6.812;2023-04-08T08:38:24;19.45;;;15.45;;
52918;SDS011;38793;52.690;6.812;2023-04-08T08:40:54;17.60;;;14.77;;
52918;SDS011;38793;52.690;6.812;2023-04-08T08:43:21;19.15;;;16.40;;
52918;SDS011;38793;52.690;6.812;2023-04-08T08:45:47;17.50;;;14.38;;
52918;SDS011;38793;52.690;6.812;2023-04-08T08:48:12;18.13;;;15.32;;
52918;SDS011;38793;52.690;6.812;2023-04-08T08:50:38;20.20;;;16.52;;
52918;SDS011;38793;52.690;6.812;2023-04-08T08:53:04;21.42;;;15.45;;
52918;SDS011;38793;52.690;6.812;2023-04-08T08:55:30;23.55;;;16.23;;
52918;SDS011;38793;52.690;6.812;2023-04-08T08:57:59;18.33;;;14.40;;
52918;SDS011;38793;52.690;6.812;2023-04-08T09:00:39;17.13;;;15.38;;
52918;SDS011;38793;52.690;6.812;2023-04-08T09:06:05;18.75;;;14.48;;
52918;SDS011;38793;52.690;6.812;2023-04-08T09:08:35;19.70;;;14.45;;
52918;SDS011;38793;52.690;6.812;2023-04-08T09:11:17;62.63;;;17.60;;
52918;SDS011;38793;52.690;6.812;2023-04-08T09:13:47;27.60;;;14.68;;
52918;SDS011;38793;52.690;6.812;2023-04-08T09:16:17;70.88;;;17.40;;
52918;SDS011;38793;52.690;6.812;2023-04-08T09:18:44;36.33;;;15.27;;
52918;SDS011;38793;52.690;6.812;2023-04-08T09:21:14;18.98;;;14.88;;
52918;SDS011;38793;52.690;6.812;2023-04-08T09:23:48;20.90;;;15.23;;
52918;SDS011;38793;52.690;6.812;2023-04-08T09:28:42;18.45;;;13.27;;
52918;SDS011;38793;52.690;6.812;2023-04-08T09:33:48;17.85;;;14.32;;
52918;SDS011;38793;52.690;6.812;2023-04-08T09:36:15;17.85;;;13.60;;
52918;SDS011;38793;52.690;6.812;2023-04-08T09:38:42;18.83;;;12.52;;
52918;SDS011;38793;52.690;6.812;2023-04-08T09:41:08;12.75;;;10.90;;
52918;SDS011;38793;52.690;6.812;2023-04-08T09:43:48;13.23;;;11.38;;
52918;SDS011;38793;52.690;6.812;2023-04-08T09:46:28;13.35;;;12.02;;
52918;SDS011;38793;52.690;6.812;2023-04-08T09:49:10;14.73;;;12.35;;
52918;SDS011;38793;52.690;6.812;2023-04-08T09:54:11;13.20;;;11.23;;
52918;SDS011;38793;52.690;6.812;2023-04-08T09:56:53;13.80;;;12.35;;
52918;SDS011;38793;52.690;6.812;2023-04-08T09:59:29;14.70;;;13.13;;
52918;SDS011;38793;52.690;6.812;2023-04-08T10:01:59;13.65;;;12.25;;
52918;SDS011;38793;52.690;6.812;2023-04-08T10:04:29;13.30;;;11.98;;
52918;SDS011;38793;52.690;6.812;2023-04-08T10:07:01;14.63;;;12.75;;
52918;SDS011;38793;52.690;6.812;2023-04-08T10:09:28;14.27;;;12.00;;
52918;SDS011;38793;52.690;6.812;2023-04-08T10:14:20;14.10;;;12.57;;
52918;SDS011;38793;52.690;6.812;2023-04-08T10:16:46;14.40;;;13.00;;
52918;SDS011;38793;52.690;6.812;2023-04-08T10:19:34;14.45;;;12.52;;
52918;SDS011;38793;52.690;6.812;2023-04-08T10:22:03;14.60;;;12.52;;
52918;SDS011;38793;52.690;6.812;2023-04-08T10:27:39;16.52;;;14.55;;
52918;SDS011;38793;52.690;6.812;2023-04-08T10:32:55;15.85;;;13.75;;
52918;SDS011;38793;52.690;6.812;2023-04-08T10:35:31;19.58;;;15.55;;
52918;SDS011;38793;52.690;6.812;2023-04-08T10:37:59;16.35;;;14.65;;
52918;SDS011;38793;52.690;6.812;2023-04-08T10:40:25;19.42;;;15.23;;
52918;SDS011;38793;52.690;6.812;2023-04-08T10:42:57;17.13;;;15.38;;
52918;SDS011;38793;52.690;6.812;2023-04-08T10:45:23;17.25;;;15.02;;
52918;SDS011;38793;52.690;6.812;2023-04-08T10:47:49;18.33;;;16.33;;
52918;SDS011;38793;52.690;6.812;2023-04-08T10:50:16;18.23;;;16.25;;
52918;SDS011;38793;52.690;6.812;2023-04-08T10:52:47;17.75;;;15.45;;
52918;SDS011;38793;52.690;6.812;2023-04-08T10:55:14;19.33;;;16.48;;
52918;SDS011;38793;52.690;6.812;2023-04-08T10:57:40;18.48;;;16.38;;
52918;SDS011;38793;52.690;6.812;2023-04-08T11:00:09;22.05;;;16.08;;
52918;SDS011;38793;52.690;6.812;2023-04-08T11:02:38;17.70;;;15.73;;
52918;SDS011;38793;52.690;6.812;2023-04-08T11:05:04;19.83;;;17.33;;
52918;SDS011;38793;52.690;6.812;2023-04-08T11:07:31;19.27;;;17.33;;
52918;SDS011;38793;52.690;6.812;2023-04-08T11:09:57;20.05;;;17.15;;
52918;SDS011;38793;52.690;6.812;2023-04-08T11:12:27;18.20;;;16.00;;
52918;SDS011;38793;52.690;6.812;2023-04-08T11:14:53;19.35;;;17.23;;
52918;SDS011;38793;52.690;6.812;2023-04-08T11:17:19;19.02;;;16.17;;
52918;SDS011;38793;52.690;6.812;2023-04-08T11:19:46;24.30;;;16.85;;
52918;SDS011;38793;52.690;6.812;2023-04-08T11:22:12;21.00;;;16.73;;
52918;SDS011;38793;52.690;6.812;2023-04-08T11:24:38;22.17;;;16.87;;
52918;SDS011;38793;52.690;6.812;2023-04-08T11:27:04;19.27;;;15.48;;
52918;SDS011;38793;52.690;6.812;2023-04-08T11:29:33;20.15;;;14.48;;
52918;SDS011;38793;52.690;6.812;2023-04-08T11:31:58;19.48;;;15.85;;
52918;SDS011;38793;52.690;6.812;2023-04-08T11:34:25;16.50;;;12.75;;
52918;SDS011;38793;52.690;6.812;2023-04-08T11:36:50;17.27;;;13.77;;
52918;SDS011;38793;52.690;6.812;2023-04-08T11:39:16;15.88;;;13.43;;
52918;SDS011;38793;52.690;6.812;2023-04-08T11:41:42;17.17;;;14.20;;
52918;SDS011;38793;52.690;6.812;2023-04-08T11:44:07;17.23;;;14.10;;
52918;SDS011;38793;52.690;6.812;2023-04-08T11:46:33;18.15;;;13.10;;
52918;SDS011;38793;52.690;6.812;2023-04-08T11:49:00;14.63;;;13.02;;
52918;SDS011;38793;52.690;6.812;2023-04-08T11:51:27;17.23;;;12.52;;
52918;SDS011;38793;52.690;6.812;2023-04-08T11:53:53;15.13;;;13.10;;
52918;SDS011;38793;52.690;6.812;2023-04-08T11:56:19;18.75;;;14.73;;
52918;SDS011;38793;52.690;6.812;2023-04-08T11:58:46;17.30;;;13.52;;
52918;SDS011;38793;52.690;6.812;2023-04-08T12:01:12;19.20;;;13.00;;
52918;SDS011;38793;52.690;6.812;2023-04-08T12:03:38;17.73;;;14.40;;
52918;SDS011;38793;52.690;6.812;2023-04-08T12:06:17;17.13;;;15.02;;
52918;SDS011;38793;52.690;6.812;2023-04-08T12:08:42;19.43;;;16.23;;
52918;SDS011;38793;52.690;6.812;2023-04-08T12:11:08;19.52;;;15.27;;
52918;SDS011;38793;52.690;6.812;2023-04-08T12:13:35;19.30;;;15.55;;
52918;SDS011;38793;52.690;6.812;2023-04-08T12:16:00;20.30;;;13.63;;
52918;SDS011;38793;52.690;6.812;2023-04-08T12:18:26;19.42;;;15.10;;
52918;SDS011;38793;52.690;6.812;2023-04-08T12:20:52;22.33;;;14.67;;
52918;SDS011;38793;52.690;6.812;2023-04-08T12:23:18;20.92;;;15.45;;
52918;SDS011;38793;52.690;6.812;2023-04-08T12:25:44;18.73;;;14.30;;
52918;SDS011;38793;52.690;6.812;2023-04-08T12:28:09;28.15;;;16.02;;
52918;SDS011;38793;52.690;6.812;2023-04-08T12:30:36;20.10;;;15.55;;
52918;SDS011;38793;52.690;6.812;2023-04-08T12:33:02;23.40;;;14.90;;
52918;SDS011;38793;52.690;6.812;2023-04-08T12:35:27;21.17;;;14.82;;
52918;SDS011;38793;52.690;6.812;2023-04-08T12:37:53;21.02;;;16.33;;
52918;SDS011;38793;52.690;6.812;2023-04-08T12:40:18;20.47;;;17.07;;
52918;SDS011;38793;52.690;6.812;2023-04-08T12:42:44;28.17;;;17.88;;
52918;SDS011;38793;52.690;6.812;2023-04-08T12:45:10;23.88;;;17.23;;
52918;SDS011;38793;52.690;6.812;2023-04-08T12:47:35;28.20;;;25.20;;
52918;SDS011;38793;52.690;6.812;2023-04-08T12:50:01;17.08;;;13.00;;
52918;SDS011;38793;52.690;6.812;2023-04-08T12:52:27;15.85;;;14.07;;
52918;SDS011;38793;52.690;6.812;2023-04-08T12:54:52;21.33;;;16.63;;
52918;SDS011;38793;52.690;6.812;2023-04-08T12:57:18;19.97;;;16.77;;
52918;SDS011;38793;52.690;6.812;2023-04-08T12:59:44;19.70;;;14.77;;
52918;SDS011;38793;52.690;6.812;2023-04-08T13:02:09;23.10;;;16.50;;
52918;SDS011;38793;52.690;6.812;2023-04-08T13:04:35;22.85;;;18.02;;
52918;SDS011;38793;52.690;6.812;2023-04-08T13:07:00;20.40;;;16.50;;
52918;SDS011;38793;52.690;6.812;2023-04-08T13:09:28;26.95;;;18.55;;
52918;SDS011;38793;52.690;6.812;2023-04-08T13:14:20;27.15;;;18.63;;
52918;SDS011;38793;52.690;6.812;2023-04-08T13:16:46;26.33;;;19.58;;
52918;SDS011;38793;52.690;6.812;2023-04-08T13:19:12;27.23;;;21.17;;
52918;SDS011;38793;52.690;6.812;2023-04-08T13:21:37;28.05;;;20.50;;
52918;SDS011;38793;52.690;6.812;2023-04-08T13:24:03;29.13;;;21.60;;
52918;SDS011;38793;52.690;6.812;2023-04-08T13:26:29;26.55;;;20.48;;
52918;SDS011;38793;52.690;6.812;2023-04-08T13:28:54;27.85;;;19.77;;
52918;SDS011;38793;52.690;6.812;2023-04-08T13:31:20;28.67;;;21.58;;
52918;SDS011;38793;52.690;6.812;2023-04-08T13:33:45;28.95;;;22.15;;
52918;SDS011;38793;52.690;6.812;2023-04-08T13:36:11;30.23;;;21.57;;
52918;SDS011;38793;52.690;6.812;2023-04-08T13:38:36;31.38;;;22.05;;
52918;SDS011;38793;52.690;6.812;2023-04-08T13:41:02;32.63;;;22.20;;
52918;SDS011;38793;52.690;6.812;2023-04-08T13:43:28;35.67;;;21.02;;
52918;SDS011;38793;52.690;6.812;2023-04-08T13:45:53;30.57;;;23.23;;
52918;SDS011;38793;52.690;6.812;2023-04-08T13:48:19;29.20;;;20.98;;
52918;SDS011;38793;52.690;6.812;2023-04-08T13:50:45;29.27;;;19.63;;
52918;SDS011;38793;52.690;6.812;2023-04-08T13:53:11;30.50;;;21.92;;
52918;SDS011;38793;52.690;6.812;2023-04-08T13:55:36;29.90;;;21.75;;
52918;SDS011;38793;52.690;6.812;2023-04-08T13:58:02;46.17;;;27.17;;
52918;SDS011;38793;52.690;6.812;2023-04-08T14:00:27;29.30;;;22.47;;
52918;SDS011;38793;52.690;6.812;2023-04-08T14:02:53;28.52;;;22.40;;
52918;SDS011;38793;52.690;6.812;2023-04-08T14:05:19;29.77;;;21.83;;
52918;SDS011;38793;52.690;6.812;2023-04-08T14:07:45;29.80;;;22.90;;
52918;SDS011;38793;52.690;6.812;2023-04-08T14:10:10;30.03;;;22.20;;
52918;SDS011;38793;52.690;6.812;2023-04-08T14:12:38;30.30;;;22.92;;
52918;SDS011;38793;52.690;6.812;2023-04-08T14:15:04;32.80;;;23.58;;
52918;SDS011;38793;52.690;6.812;2023-04-08T14:17:30;33.15;;;23.80;;
52918;SDS011;38793;52.690;6.812;2023-04-08T14:19:55;33.05;;;24.02;;
52918;SDS011;38793;52.690;6.812;2023-04-08T14:22:23;32.92;;;24.33;;
52918;SDS011;38793;52.690;6.812;2023-04-08T14:24:49;35.27;;;24.97;;
52918;SDS011;38793;52.690;6.812;2023-04-08T14:27:14;32.28;;;24.25;;
52918;SDS011;38793;52.690;6.812;2023-04-08T14:29:40;35.70;;;25.38;;
52918;SDS011;38793;52.690;6.812;2023-04-08T14:32:06;34.05;;;24.30;;
52918;SDS011;38793;52.690;6.812;2023-04-08T14:34:31;35.13;;;24.30;;
52918;SDS011;38793;52.690;6.812;2023-04-08T14:36:57;33.20;;;24.07;;
52918;SDS011;38793;52.690;6.812;2023-04-08T14:39:22;30.23;;;22.10;;
52918;SDS011;38793;52.690;6.812;2023-04-08T14:41:48;34.10;;;24.67;;
52918;SDS011;38793;52.690;6.812;2023-04-08T14:44:14;42.40;;;25.43;;
52918;SDS011;38793;52.690;6.812;2023-04-08T14:46:39;39.50;;;26.40;;
52918;SDS011;38793;52.690;6.812;2023-04-08T14:49:05;38.67;;;25.60;;
52918;SDS011;38793;52.690;6.812;2023-04-08T14:51:31;34.42;;;25.10;;
52918;SDS011;38793;52.690;6.812;2023-04-08T14:53:57;53.83;;;28.90;;
52918;SDS011;38793;52.690;6.812;2023-04-08T14:56:23;42.93;;;27.13;;
52918;SDS011;38793;52.690;6.812;2023-04-08T14:58:48;35.23;;;27.17;;
52918;SDS011;38793;52.690;6.812;2023-04-08T15:01:14;54.95;;;28.58;;
52918;SDS011;38793;52.690;6.812;2023-04-08T15:03:39;43.47;;;27.73;;
52918;SDS011;38793;52.690;6.812;2023-04-08T15:06:05;39.23;;;27.10;;
52918;SDS011;38793;52.690;6.812;2023-04-08T15:08:31;43.50;;;26.08;;
52918;SDS011;38793;52.690;6.812;2023-04-08T15:10:58;60.42;;;29.85;;